Time;durP1;ratioP1;P1;durP2;ratioP2;P2;SDS_P1;SDS_P2;PMS_P1;PMS_P2;Temp;Humidity;BMP_temperature;BMP_pressure;BME280_temperature;BME280_humidity;BME280_pressure;Samples;Min_cycle;Max_cycle;Signal;HPM_P1;HPM_P2
2022/12/29 00:02:04;;;;;;;2.10;1.00;;;;;;;-144.47;69.80;52893.81;4991178;28;20038;-70
2022/12/29 00:04:30;;;;;;;3.70;1.35;;;;;;;-144.47;69.27;52907.72;4991750;28;20022;-68
2022/12/29 00:06:55;;;;;;;4.75;1.45;;;;;;;-144.47;69.42;52927.59;4990829;28;20065;-71
2022/12/29 00:09:21;;;;;;;3.80;1.35;;;;;;;-144.47;69.26;52941.50;4994870;28;20030;-69
2022/12/29 00:11:49;;;;;;;3.08;1.20;;;;;;;-144.47;68.85;52903.75;4977185;28;20475;-71
2022/12/29 00:17:10;;;;;;;3.10;1.40;;;;;;;-144.47;68.45;52915.69;4908533;28;20048;-70
2022/12/29 00:36:29;;;;;;;3.28;1.13;;;;;;;-144.47;68.20;52887.88;5000076;28;20060;-71
2022/12/29 00:44:29;;;;;;;2.20;1.00;;;;;;;-144.47;67.62;52915.69;5001673;28;20024;-69
2022/12/29 00:46:54;;;;;;;3.53;1.17;;;;;;;-144.47;67.67;52939.50;5007300;28;20026;-71
2022/12/29 00:49:32;;;;;;;2.80;1.17;;;;;;;-144.47;67.75;52913.69;5007941;28;20113;-67
2022/12/29 00:52:04;;;;;;;2.57;1.20;;;;;;;-144.47;67.75;52903.75;5007830;28;20026;-69
2022/12/29 00:54:32;;;;;;;2.30;1.13;;;;;;;-144.47;67.79;52907.72;5008841;28;20025;-67
2022/12/29 00:56:58;;;;;;;2.63;1.27;;;;;;;-144.47;67.63;52897.81;5006917;28;20010;-70
2022/12/29 00:59:23;;;;;;;6.55;1.50;;;;;;;-144.47;67.51;52893.81;4990891;28;20116;-67
2022/12/29 01:01:50;;;;;;;1.90;1.00;;;;;;;-144.47;67.41;52883.91;4999110;28;20033;-68
2022/12/29 01:04:15;;;;;;;4.90;1.10;;;;;;;-144.47;67.36;52907.72;5000471;28;20429;-70
2022/12/29 01:06:41;;;;;;;1.85;1.10;;;;;;;-144.47;67.38;52901.78;4988688;28;20026;-69
2022/12/29 01:11:52;;;;;;;2.25;1.23;;;;;;;-144.47;67.33;52875.94;4993771;28;20627;-69
2022/12/29 01:14:18;;;;;;;2.95;1.38;;;;;;;-144.47;67.65;52887.88;4988851;28;20038;-70
2022/12/29 01:16:45;;;;;;;2.47;1.20;;;;;;;-144.47;67.60;52899.78;4992216;28;20125;-70
2022/12/29 01:19:10;;;;;;;4.50;1.48;;;;;;;-144.47;67.74;52897.81;4992176;28;20021;-69
2022/12/29 01:21:36;;;;;;;3.45;1.33;;;;;;;-144.47;67.85;52873.97;4994425;28;20033;-68
2022/12/29 01:24:01;;;;;;;4.50;1.20;;;;;;;-144.47;67.83;52891.84;4995700;28;20117;-69
2022/12/29 01:26:27;;;;;;;2.45;1.20;;;;;;;-144.47;68.25;52907.72;4998958;28;20097;-71
2022/12/29 01:28:52;;;;;;;1.80;1.00;;;;;;;-144.47;68.35;52887.88;4996644;28;20410;-70
2022/12/29 01:31:17;;;;;;;3.00;1.35;;;;;;;-144.47;68.58;52891.84;4996045;28;20042;-71
2022/12/29 01:33:43;;;;;;;3.63;1.25;;;;;;;-144.47;69.12;52887.88;4996296;28;20041;-68
2022/12/29 01:36:14;;;;;;;4.35;1.80;;;;;;;-144.47;69.14;52883.91;4994882;28;20138;-69
2022/12/29 01:38:40;;;;;;;5.15;1.77;;;;;;;-144.47;69.61;52871.97;4996947;28;20021;-71
2022/12/29 01:41:08;;;;;;;1.50;0.98;;;;;;;-144.47;69.77;52905.75;4995860;28;20037;-69
2022/12/29 01:43:45;;;;;;;6.28;1.55;;;;;;;-144.47;70.02;52911.69;4993855;28;20018;-69
2022/12/29 01:46:27;;;;;;;2.28;1.33;;;;;;;-144.47;70.18;52895.81;4995168;28;20026;-71
2022/12/29 01:49:16;;;;;;;3.10;1.45;;;;;;;-144.47;70.09;52885.88;4978125;28;20506;-70
2022/12/29 01:51:47;;;;;;;;;;;;;;;-144.47;70.12;52883.91;4998933;28;20041;-71
2022/12/29 01:54:15;;;;;;;;;;;;;;;-144.47;70.34;52917.66;4995984;28;19929;-68
2022/12/29 01:56:41;;;;;;;;;;;;;;;-144.47;70.46;52885.88;4991101;28;19918;-66
2022/12/29 01:59:11;;;;;;;;;;;;;;;-144.47;70.58;52905.75;4996963;28;19936;-70
2022/12/29 02:01:36;;;;;;;;;;;;;;;-144.47;70.81;52887.88;4991139;28;19909;-68
2022/12/29 02:04:01;;;;;;;;;;;;;;;-144.47;70.86;52887.88;4975926;28;19962;-69
2022/12/29 02:06:36;;;;;;;;;;;;;;;-144.47;70.62;52873.97;4990623;28;19917;-70
2022/12/29 02:09:02;;;;;;;;;;;;;;;-144.47;70.49;52911.69;4997192;28;20357;-67
2022/12/29 02:11:28;;;;;;;;;;;;;;;-144.47;70.47;52903.75;4994212;28;19913;-70
2022/12/29 02:13:53;;;;;;;;;;;;;;;-144.47;70.51;52893.81;4991372;28;19928;-70
2022/12/29 02:16:38;;;;;;;;;;;;;;;-144.47;70.11;52911.69;4993510;28;19914;-70
2022/12/29 02:19:15;;;;;;;;;;;;;;;-144.47;69.97;52891.84;4992600;28;19906;-68
2022/12/29 02:21:46;;;;;;;;;;;;;;;-144.47;69.68;52913.69;4994591;28;19909;-70
2022/12/29 02:24:12;;;;;;;;;;;;;;;-144.47;69.30;52913.69;4996349;28;19910;-70
2022/12/29 02:26:57;;;;;;;;;;;;;;;-144.47;69.29;52891.84;5001180;28;19909;-68
2022/12/29 02:29:22;;;;;;;;;;;;;;;-144.47;69.27;52891.84;5007361;28;19935;-69
2022/12/29 02:32:06;;;;;;;;;;;;;;;-144.47;69.37;52901.78;5001931;28;20415;-67
2022/12/29 02:34:51;;;;;;;;;;;;;;;-144.47;69.33;52885.88;5004177;28;19905;-70
2022/12/29 02:37:19;;;;;;;;;;;;;;;-144.47;69.54;52858.06;5006643;28;19905;-66
2022/12/29 02:39:53;;;;;;;;;;;;;;;-144.47;69.57;52897.81;5010287;28;19906;-70
2022/12/29 02:42:24;;;;;;;;;;;;;;;-144.47;69.89;52883.91;5010445;28;19905;-71
2022/12/29 02:44:55;;;;;;;;;;;;;;;-144.47;70.01;52889.84;5010761;28;19909;-71
2022/12/29 02:47:29;;;;;;;;;;;;;;;-144.47;70.25;52891.84;4992726;28;20613;-70
2022/12/29 02:50:01;;;;;;;;;;;;;;;-144.47;70.29;52871.97;5004074;28;19924;-72
2022/12/29 02:52:30;;;;;;;;;;;;;;;-144.47;70.19;52864.03;5009856;28;20350;-71
2022/12/29 02:54:55;;;;;;;;;;;;;;;-144.47;70.41;52881.91;5005905;28;19917;-71
2022/12/29 02:57:20;;;;;;;;;;;;;;;-144.47;70.44;52862.06;5009684;28;20338;-68
2022/12/29 02:59:47;;;;;;;;;;;;;;;-144.47;70.42;52901.78;5010517;28;19909;-72
2022/12/29 03:02:31;;;;;;;;;;;;;;;-144.47;70.36;52858.06;4992880;28;19938;-71
2022/12/29 03:05:12;;;;;;;;;;;;;;;-144.47;70.61;52915.69;5008268;28;19913;-70
2022/12/29 03:07:47;;;;;;;;;;;;;;;-144.47;70.80;52871.97;5009172;28;19936;-71
2022/12/29 03:10:15;;;;;;;;;;;;;;;-144.47;70.89;52895.81;5004030;28;19936;-71
2022/12/29 03:18:22;;;;;;;;;;;;;;;-144.47;70.77;52887.88;5005408;28;19912;-70
2022/12/29 03:20:54;;;;;;;;;;;;;;;-144.47;70.69;52889.84;4988645;28;20329;-71
2022/12/29 03:23:21;;;;;;;;;;;;;;;-144.47;70.66;52923.63;5010280;28;19948;-68
2022/12/29 03:25:48;;;;;;;;;;;;;;;-144.47;70.74;52887.88;5009802;28;19909;-71
2022/12/29 03:28:16;;;;;;;;;;;;;;;-144.47;70.74;52873.97;5008535;28;19906;-71
2022/12/29 03:30:43;;;;;;;;;;;;;;;-144.47;70.88;52852.13;5004276;28;19928;-68
2022/12/29 03:33:10;;;;;;;;;;;;;;;-144.47;70.88;52883.91;5003472;28;19969;-71
2022/12/29 03:35:37;;;;;;;;;;;;;;;-144.47;70.70;52889.84;5005808;28;20699;-69
2022/12/29 03:38:35;;;;;;;;;;;;;;;-144.47;70.54;52885.88;5009028;28;20346;-68
2022/12/29 03:41:03;;;;;;;;;;;;;;;-144.47;70.52;52881.91;4956476;28;19906;-71
2022/12/29 03:43:29;;;;;;;;;;;;;;;-144.47;70.44;52917.66;5006801;28;19932;-70
2022/12/29 03:45:54;;;;;;;;;;;;;;;-144.47;70.46;52899.78;5009719;28;19909;-69
2022/12/29 03:48:19;;;;;;;;;;;;;;;-144.47;70.20;52909.72;5008585;28;19932;-70
2022/12/29 03:50:44;;;;;;;;;;;;;;;-144.47;70.34;52877.94;5008618;28;20430;-72
2022/12/29 03:53:10;;;;;;;;;;;;;;;-144.47;70.14;52868.00;5010005;28;20260;-70
2022/12/29 03:55:35;;;;;;;;;;;;;;;-144.47;70.25;52870.00;5009798;28;20477;-71
2022/12/29 03:58:00;;;;;;;;;;;;;;;-144.47;70.17;52903.75;5008754;28;19909;-72
2022/12/29 04:00:25;;;;;;;;;;;;;;;-144.47;70.44;52883.91;5034450;22;20383;-67
2022/12/29 04:02:51;;;;;;;;;;;;;;;-144.47;70.61;52885.88;5030817;28;19959;-69
2022/12/29 04:05:16;;;;;;;;;;;;;;;-144.47;70.68;52885.88;5029483;28;19908;-69
2022/12/29 04:07:41;;;;;;;;;;;;;;;-144.47;70.91;52868.00;5027592;28;20080;-70
2022/12/29 04:10:07;;;;;;;;;;;;;;;-144.47;70.92;52870.00;5012265;28;19916;-66
2022/12/29 04:12:32;;;;;;;;;;;;;;;-144.47;71.01;52901.78;5012146;28;19919;-68
2022/12/29 04:14:57;;;;;;;;;;;;;;;-144.47;71.05;52905.75;5030400;28;19975;-66
2022/12/29 04:17:22;;;;;;;;;;;;;;;-144.47;71.18;52879.94;5005159;28;20294;-68
2022/12/29 04:19:48;;;;;;;;;;;;;;;-144.47;71.28;52864.03;5029114;28;19916;-67
2022/12/29 04:22:13;;;;;;;;;;;;;;;-144.47;71.15;52895.81;5028001;28;20008;-70
2022/12/29 04:24:38;;;;;;;;;;;;;;;-144.47;71.31;52891.84;5029627;28;19909;-69
2022/12/29 04:27:04;;;;;;;;;;;;;;;-144.47;71.51;52885.88;5010651;28;19917;-66
2022/12/29 04:29:29;;;;;;;;;;;;;;;-144.47;71.75;52881.91;5007148;28;19941;-68
2022/12/29 04:31:54;;;;;;;;;;;;;;;-144.47;71.98;52897.81;5015238;28;20029;-68
2022/12/29 04:34:20;;;;;;;;;;;;;;;-144.47;72.02;52868.00;5009686;28;19931;-68
2022/12/29 04:36:45;;;;;;;;;;;;;;;-144.47;71.92;52871.97;5010708;28;19954;-66
2022/12/29 04:39:10;;;;;;;;;;;;;;;-144.47;71.93;52870.00;5011781;28;19909;-68
2022/12/29 04:41:35;;;;;;;;;;;;;;;-144.47;71.95;52854.09;5010741;28;19999;-66
2022/12/29 04:44:01;;;;;;;;;;;;;;;-144.47;72.17;52891.84;4995572;28;19908;-69
2022/12/29 04:46:26;;;;;;;;;;;;;;;-144.47;72.45;52871.97;5029119;28;19909;-69
2022/12/29 04:48:51;;;;;;;;;;;;;;;-144.47;72.99;52893.81;5011184;28;19913;-67
2022/12/29 04:51:16;;;;;;;;;;;;;;;-144.47;73.18;52895.81;5027869;28;19908;-69
2022/12/29 04:53:42;;;;;;;;;;;;;;;-144.47;73.43;52868.00;5011212;28;19929;-66
2022/12/29 04:56:08;;;;;;;;;;;;;;;-144.47;73.42;52877.94;5027935;28;19909;-69
2022/12/29 04:58:34;;;;;;;;;;;;;;;-144.47;73.63;52881.91;5028323;28;20016;-66
2022/12/29 05:00:59;;;;;;;;;;;;;;;-144.47;73.93;52868.00;4995100;28;19995;-69
2022/12/29 05:03:25;;;;;;;;;;;;;;;-144.47;74.17;52903.75;4994439;28;20008;-66
2022/12/29 05:05:52;;;;;;;;;;;;;;;-144.47;74.51;52901.78;5029301;28;20140;-68
2022/12/29 05:08:18;;;;;;;;;;;;;;;-144.47;75.05;52881.91;5002617;28;19943;-68
2022/12/29 05:10:46;;;;;;;;;;;;;;;-144.47;75.66;52891.84;5028871;28;19909;-69
2022/12/29 05:13:12;;;;;;;;;;;;;;;-144.47;76.18;52881.91;5029697;28;19951;-66
2022/12/29 05:15:37;;;;;;;;;;;;;;;-144.47;76.41;52858.06;5030039;28;19940;-68
2022/12/29 05:18:02;;;;;;;;;;;;;;;-144.47;76.74;52873.97;5007387;28;19924;-66
2022/12/29 05:20:27;;;;;;;;;;;;;;;-144.47;77.20;52862.06;5012409;28;19920;-69
2022/12/29 05:22:53;;;;;;;;;;;;;;;-144.47;77.53;52905.75;5015031;28;20000;-68
2022/12/29 05:25:18;;;;;;;;;;;;;;;-144.47;77.92;52899.78;5015342;28;19909;-68
2022/12/29 05:27:43;;;;;;;;;;;;;;;-144.47;78.19;52907.72;4998971;28;20051;-65
2022/12/29 05:30:09;;;;;;;;;;;;;;;-144.47;78.47;52903.75;5029912;28;19913;-68
2022/12/29 05:32:34;;;;;;;;;;;;;;;-144.47;78.91;52891.84;5012040;28;20378;-67
2022/12/29 05:35:00;;;;;;;;;;;;;;;-144.47;78.92;52883.91;5029492;28;19916;-67
2022/12/29 05:37:25;;;;;;;;;;;;;;;-144.47;79.11;52899.78;5010713;28;19909;-68
2022/12/29 05:39:50;;;;;;;;;;;;;;;-144.47;79.16;52875.94;5011306;28;19909;-69
2022/12/29 05:42:16;;;;;;;;;;;;;;;-144.47;79.40;52905.75;5029008;28;19913;-69
2022/12/29 05:44:41;;;;;;;;;;;;;;;-144.47;79.38;52881.91;5012490;28;20355;-65
2022/12/29 05:47:06;;;;;;;;;;;;;;;-144.47;78.94;52903.75;5024179;28;19913;-68
2022/12/29 05:49:31;;;;;;;;;;;;;;;-144.47;78.87;52885.88;5003950;28;20008;-67
2022/12/29 05:51:57;;;;;;;;;;;;;;;-144.47;79.15;52889.84;5012319;28;19913;-69
2022/12/29 05:54:22;;;;;;;;;;;;;;;-144.47;79.48;52899.78;5012026;28;20426;-66
2022/12/29 05:56:47;;;;;;;;;;;;;;;-144.47;79.68;52889.84;4993793;28;19909;-67
2022/12/29 05:59:13;;;;;;;;;;;;;;;-144.47;79.58;52879.94;5030387;28;19948;-66
2022/12/29 06:01:38;;;;;;;;;;;;;;;-144.47;79.49;52897.81;5029990;28;19999;-67
2022/12/29 06:04:03;;;;;;;;;;;;;;;-144.47;79.65;52870.00;5028921;28;19909;-68
2022/12/29 06:06:29;;;;;;;;;;;;;;;-144.47;79.33;52891.84;5028625;28;19909;-69
2022/12/29 06:08:54;;;;;;;;;;;;;;;-144.47;79.27;52907.72;5009124;28;19920;-69
2022/12/29 06:11:19;;;;;;;;;;;;;;;-144.47;78.99;52899.78;5033260;28;19916;-66
2022/12/29 06:13:44;;;;;;;;;;;;;;;-144.47;78.71;52866.03;5032378;28;19909;-67
2022/12/29 06:16:10;;;;;;;;;;;;;;;-144.47;78.74;52899.78;5015077;28;20402;-67
2022/12/29 06:18:35;;;;;;;;;;;;;;;-144.47;78.52;52885.88;5030297;28;19909;-68
2022/12/29 06:21:01;;;;;;;;;;;;;;;-144.47;78.40;52875.94;5032909;28;19932;-70
2022/12/29 06:23:27;;;;;;;;;;;;;;;-144.47;78.12;52889.84;5032828;28;19915;-69
2022/12/29 06:25:52;;;;;;;;;;;;;;;-144.47;77.91;52860.06;4997670;28;19909;-68
2022/12/29 06:28:17;;;;;;;;;;;;;;;-144.47;77.66;52889.84;5013395;28;19944;-71
2022/12/29 06:30:46;;;;;;;;;;;;;;;-144.47;77.61;52875.94;5014477;28;20303;-68
2022/12/29 06:33:12;;;;;;;;;;;;;;;-144.47;77.55;52873.97;5015246;28;20287;-69
2022/12/29 06:35:37;;;;;;;;;;;;;;;-144.47;77.55;52871.97;5032446;28;19912;-70
2022/12/29 06:38:03;;;;;;;;;;;;;;;-144.47;77.35;52899.78;5013802;28;19913;-69
2022/12/29 06:40:28;;;;;;;;;;;;;;;-144.47;77.50;52889.84;5014162;28;19909;-67
2022/12/29 06:42:53;;;;;;;;;;;;;;;-144.47;77.54;52885.88;5030309;28;20476;-70
2022/12/29 06:45:18;;;;;;;;;;;;;;;-144.47;77.20;52868.00;5032499;28;20059;-67
2022/12/29 06:47:44;;;;;;;;;;;;;;;-144.47;77.67;52875.94;5031664;28;19909;-70
2022/12/29 06:50:09;;;;;;;;;;;;;;;-144.47;78.49;52868.00;5031757;28;20347;-68
2022/12/29 06:52:34;;;;;;;;;;;;;;;-144.47;78.62;52899.78;5032515;28;20211;-69
2022/12/29 06:54:59;;;;;;;;;;;;;;;-144.47;78.96;52895.81;5032748;28;19905;-66
2022/12/29 06:57:26;;;;;;;;;;;;;;;-144.47;79.59;52915.69;5032118;28;19924;-69
2022/12/29 06:59:51;;;;;;;;;;;;;;;-144.47;80.24;52885.88;5033664;28;19995;-68
2022/12/29 07:02:19;;;;;;;;;;;;;;;-144.47;80.98;52893.81;5034281;28;19963;-68
2022/12/29 07:04:44;;;;;;;;;;;;;;;-144.47;81.80;52931.56;5034360;28;19905;-70
2022/12/29 07:07:09;;;;;;;;;;;;;;;-144.47;82.25;52903.75;5020503;28;20406;-69
2022/12/29 07:09:35;;;;;;;;;;;;;;;-144.47;82.74;52881.91;5028722;28;20317;-68
2022/12/29 07:12:00;;;;;;;;;;;;;;;-144.47;84.45;52903.75;5028113;28;20167;-65
2022/12/29 07:14:25;;;;;;;;;;;;;;;-144.47;85.10;52891.84;5029248;28;19911;-70
2022/12/29 07:16:50;;;;;;;;;;;;;;;-144.47;85.05;52917.66;5030817;28;20015;-68
2022/12/29 07:19:16;;;;;;;;;;;;;;;-144.47;85.13;52893.81;5031218;28;19905;-69
2022/12/29 07:21:41;;;;;;;;;;;;;;;-144.47;85.10;52907.72;5031965;28;19905;-70
2022/12/29 07:24:07;;;;;;;;;;;;;;;-144.47;85.00;52911.69;5027760;28;20542;-66
2022/12/29 07:26:32;;;;;;;;;;;;;;;-144.47;84.79;52909.72;5028277;28;19909;-69
2022/12/29 07:28:57;;;;;;;;;;;;;;;-144.47;84.57;52931.56;5031706;28;19909;-69
2022/12/29 07:31:22;;;;;;;;;;;;;;;-144.47;84.50;52935.53;5026782;28;20004;-68
2022/12/29 07:33:48;;;;;;;;;;;;;;;-144.47;84.70;52889.84;4997362;28;19996;-66
2022/12/29 07:36:14;;;;;;;;;;;;;;;-144.47;85.00;52871.97;5030070;28;20273;-68
2022/12/29 07:38:40;;;;;;;;;;;;;;;-144.47;84.98;52927.59;5027202;28;20371;-70
2022/12/29 07:41:05;;;;;;;;;;;;;;;-144.47;84.58;52901.78;5023985;28;19916;-68
2022/12/29 07:43:30;;;;;;;;;;;;;;;-144.47;84.29;52893.81;5026201;28;19908;-69
2022/12/29 07:45:56;;;;;;;;;;;;;;;-144.47;83.84;52913.69;5020967;28;19909;-66
2022/12/29 07:48:21;;;;;;;;;;;;;;;-144.47;83.61;52885.88;5023442;28;19909;-68
2022/12/29 07:50:46;;;;;;;;;;;;;;;-144.47;83.39;52895.81;5030707;28;19905;-68
2022/12/29 07:53:12;;;;;;;;;;;;;;;-144.47;83.25;52917.66;5031942;28;19931;-69
2022/12/29 07:55:37;;;;;;;;;;;;;;;-144.47;83.66;52891.84;5027815;28;19966;-68
2022/12/29 07:58:02;;;;;;;;;;;;;;;-144.47;83.59;52901.78;5022429;28;20451;-69
2022/12/29 08:00:27;;;;;;;;;;;;;;;-144.47;83.43;52883.91;5010181;28;20058;-66
2022/12/29 08:02:53;;;;;;;;;;;;;;;-144.47;83.31;52907.72;5029106;28;19921;-70
2022/12/29 08:05:18;;;;;;;;;;;;;;;-144.47;82.89;52915.69;5002835;28;19945;-69
2022/12/29 08:07:44;;;;;;;;;;;;;;;-144.47;82.70;52907.72;5029445;28;19947;-69
2022/12/29 08:10:10;;;;;;;;;;;;;;;-144.47;82.40;52907.72;4996725;28;20325;-70
2022/12/29 08:12:35;;;;;;;;;;;;;;;-144.47;82.28;52864.03;5012631;28;20259;-67
2022/12/29 08:15:00;;;;;;;;;;;;;;;-144.47;81.92;52891.84;5025838;28;20171;-68
2022/12/29 08:17:25;;;;;;;;;;;;;;;-144.47;81.78;52889.84;5014218;28;19992;-70
2022/12/29 08:19:51;;;;;;;;;;;;;;;-144.47;81.55;52852.13;5030496;28;20012;-69
2022/12/29 08:22:16;;;;;;;;;;;;;;;-144.47;81.37;52901.78;5013375;28;19990;-67
2022/12/29 08:24:41;;;;;;;;;;;;;;;-144.47;81.20;52870.00;5012677;28;20515;-68
2022/12/29 08:27:06;;;;;;;;;;;;;;;-144.47;80.98;52887.88;5023919;28;20331;-68
2022/12/29 08:29:31;;;;;;;;;;;;;;;-144.47;80.81;52879.94;5012638;28;19905;-68
2022/12/29 08:31:57;;;;;;;;;;;;;;;-144.47;80.68;52864.03;5030629;28;19941;-67
2022/12/29 08:34:22;;;;;;;;;;;;;;;-144.47;80.67;52873.97;5030344;28;20311;-70
2022/12/29 08:36:47;;;;;;;;;;;;;;;-144.47;80.50;52881.91;5028934;28;19917;-67
2022/12/29 08:39:13;;;;;;;;;;;;;;;-144.47;80.39;52871.97;5023161;28;19920;-67
2022/12/29 08:41:38;;;;;;;;;;;;;;;-144.47;80.10;52883.91;5029848;28;20274;-70
2022/12/29 08:44:04;;;;;;;;;;;;;;;-144.47;79.95;52877.94;5029523;28;19909;-68
2022/12/29 08:46:29;;;;;;;;;;;;;;;-144.47;79.73;52877.94;5027418;28;19993;-69
2022/12/29 08:48:54;;;;;;;;;;;;;;;-144.47;79.36;52875.94;5016897;28;19909;-68
2022/12/29 08:51:20;;;;;;;;;;;;;;;-144.47;78.66;52856.09;5019228;28;19962;-71
2022/12/29 08:53:45;;;;;;;;;;;;;;;-144.47;78.29;52856.09;5028513;28;20382;-67
2022/12/29 08:56:11;;;;;;;;;;;;;;;-144.47;77.88;52858.06;5020900;28;19916;-70
2022/12/29 08:58:37;;;;;;;;;;;;;;;-144.47;77.45;52905.75;5023872;28;19908;-69
2022/12/29 09:01:02;;;;;;;;;;;;;;;-144.47;77.33;52868.00;5023359;28;19909;-66
2022/12/29 09:03:27;;;;;;;;;;;;;;;-144.47;77.40;52873.97;5011819;28;19979;-72
2022/12/29 09:05:53;;;;;;;;;;;;;;;-144.47;77.74;52885.88;5029110;28;20016;-69
2022/12/29 09:08:19;;;;;;;;;;;;;;;-144.47;78.01;52848.16;5029225;28;19912;-70
2022/12/29 09:10:45;;;;;;;;;;;;;;;-144.47;77.88;52866.03;5030251;28;19908;-67
2022/12/29 09:13:10;;;;;;;;;;;;;;;-144.47;77.37;52862.06;5021770;28;19941;-70
2022/12/29 09:15:36;;;;;;;;;;;;;;;-144.47;77.08;52897.81;5008200;28;20018;-69
2022/12/29 09:18:01;;;;;;;;;;;;;;;-144.47;76.72;52860.06;5024044;28;19909;-68
2022/12/29 09:20:26;;;;;;;;;;;;;;;-144.47;76.47;52875.94;5020959;28;19921;-70
2022/12/29 09:22:52;;;;;;;;;;;;;;;-144.47;76.16;52866.03;5026679;28;19909;-67
2022/12/29 09:25:17;;;;;;;;;;;;;;;-144.47;75.97;52860.06;5019516;28;19948;-70
2022/12/29 09:27:42;;;;;;;;;;;;;;;-144.47;75.36;52860.06;5028455;28;19913;-70
2022/12/29 09:30:09;;;;;;;;;;;;;;;-144.47;74.66;52852.13;5025930;28;20345;-69
2022/12/29 09:32:35;;;;;;;;;;;;;;;-144.47;74.54;52842.19;5024434;28;19909;-69
2022/12/29 09:35:00;;;;;;;;;;;;;;;-144.47;73.82;52850.13;5029927;28;20435;-69
2022/12/29 09:37:26;;;;;;;;;;;;;;;-144.47;73.45;52848.16;5011471;28;19911;-71
2022/12/29 09:39:51;;;;;;;;;;;;;;;-144.47;73.40;52862.06;5030369;28;20376;-68
2022/12/29 09:42:26;;;;;;;;;;;;;;;-144.47;72.43;52838.22;5028877;28;19916;-70
2022/12/29 09:45:03;;;;;;;;;;;;;;;-144.47;72.06;52856.09;5026115;28;19915;-69
2022/12/29 09:47:29;;;;;;;;;;;;;;;-144.47;71.10;52860.06;5027637;28;19912;-69
2022/12/29 09:49:56;;;;;;;;;;;;;;;-144.47;70.66;52846.16;5015620;28;19935;-70
2022/12/29 09:52:21;;;;;;;;;;;;;;;-144.47;70.25;52848.16;5030421;28;19921;-70
2022/12/29 09:54:47;;;;;;;;;;;;;;;-144.47;70.14;52860.06;5025926;28;19917;-70
2022/12/29 09:57:15;;;;;;;;;;;;;;;-144.47;70.15;52822.31;5031874;28;20424;-69
2022/12/29 09:59:43;;;;;;;;;;;;;;;-144.47;70.44;52862.06;5033136;28;20266;-72
2022/12/29 10:02:30;;;;;;;;;;;;;;;-144.47;70.59;52842.19;5044033;23;20447;-71
2022/12/29 10:04:56;;;;;;;;;;;;;;;-144.47;70.38;52846.16;5028796;28;19956;-72
2022/12/29 10:07:38;;;;;;;;;;;;;;;-144.47;70.33;52834.25;5025291;28;19913;-71
2022/12/29 10:10:15;;;;;;;;;;;;;;;-144.47;70.18;52836.22;5028760;28;19925;-70
2022/12/29 10:12:40;;;;;;;;;;;;;;;-144.47;70.41;52834.25;5025868;28;20274;-68
2022/12/29 10:15:13;;;;;;;;;;;;;;;-144.47;70.37;52840.19;5026705;28;20378;-69
2022/12/29 10:17:50;;;;;;;;;;;;;;;-144.47;70.32;52836.22;5025522;28;19924;-71
2022/12/29 10:20:26;;;;;;;;;;;;;;;-144.47;70.11;52864.03;5028909;28;19984;-67
2022/12/29 10:23:00;;;;;;;;;;;;;;;-144.47;70.13;52846.16;5029219;28;19909;-70
2022/12/29 10:25:28;;;;;;;;;;;;;;;-144.47;70.14;52832.25;5028215;28;19916;-69
2022/12/29 10:27:56;;;;;;;;;;;;;;;-144.47;70.22;52840.19;5022867;28;20520;-70
2022/12/29 10:30:22;;;;;;;;;;;;;;;-144.47;70.24;52854.09;5026524;28;19909;-71
2022/12/29 10:32:48;;;;;;;;;;;;;;;-144.47;70.16;52856.09;5030395;28;19909;-71
2022/12/29 10:35:19;;;;;;;;;;;;;;;-144.47;69.99;52830.28;5030095;28;20388;-71
2022/12/29 10:38:10;;;;;;;;;;;;;;;-144.47;69.99;52846.16;5011014;28;19940;-71
2022/12/29 10:40:43;;;;;;;;;;;;;;;-144.47;69.54;52836.22;5011744;28;19921;-70
2022/12/29 10:43:27;;;;;;;;;;;;;;;-144.47;69.52;52836.22;5020340;28;19906;-71
2022/12/29 10:45:56;;;;;;;;;;;;;;;-144.47;68.90;52852.13;5030217;28;20386;-68
2022/12/29 10:48:24;;;;;;;;;;;;;;;-144.47;68.78;52820.34;5028970;28;19913;-71
2022/12/29 10:50:50;;;;;;;;;;;;;;;-144.47;68.55;52842.19;5028438;28;19916;-71
2022/12/29 10:53:23;;;;;;;;;;;;;;;-144.47;68.25;52830.28;5021841;28;20432;-69
2022/12/29 10:55:49;;;;;;;;;;;;;;;-144.47;67.98;52812.41;5018370;28;20358;-70
2022/12/29 10:58:14;;;;;;;;;;;;;;;-144.47;67.61;52838.22;5028352;28;19904;-68
2022/12/29 11:00:41;;;;;;;;;;;;;;;-144.47;66.77;52842.19;5028988;28;20425;-71
2022/12/29 11:03:06;;;;;;;;;;;;;;;-144.47;66.05;52812.41;5028606;28;20481;-69
2022/12/29 11:05:35;;;;;;;;;;;;;;;-144.47;65.45;52796.50;5024827;28;20012;-71
2022/12/29 11:08:09;;;;;;;;;;;;;;;-144.47;64.84;52820.34;5028411;28;19917;-73
2022/12/29 11:10:34;;;;;;;;;;;;;;;-144.47;64.31;52826.31;5024433;28;20572;-70
2022/12/29 11:13:01;;;;;;;;;;;;;;;-144.47;63.83;52802.47;5032677;28;19909;-73
2022/12/29 11:15:27;;;;;;;;;;;;;;;-144.47;63.88;52804.44;5027981;28;19908;-66
2022/12/29 11:17:59;;;;;;;;;;;;;;;-144.47;63.88;52804.44;5028486;28;20343;-71
2022/12/29 11:20:27;;;;;;;;;;;;;;;-144.47;64.34;52802.47;5026057;28;20378;-71
2022/12/29 11:22:53;;;;;;;;;;;;;;;-144.47;64.27;52844.19;5029083;28;19965;-67
2022/12/29 11:25:18;;;;;;;;;;;;;;;-144.47;64.44;52818.34;5029791;28;20031;-70
2022/12/29 11:27:55;;;;;;;;;;;;;;;-144.47;64.45;52834.25;5026561;28;19917;-73
2022/12/29 11:30:27;;;;;;;;;;;;;;;-144.47;64.50;52820.34;5029380;28;20363;-69
2022/12/29 11:32:53;;;;;;;;;;;;;;;-144.47;64.59;52806.44;5017152;28;19969;-71
2022/12/29 11:35:32;;;;;;;;;;;;;;;-144.47;64.77;52818.34;5010149;28;19921;-71
2022/12/29 11:37:58;;;;;;;;;;;;;;;-144.47;65.34;52830.28;5012996;28;19943;-73
2022/12/29 11:40:23;;;;;;;;;;;;;;;-144.47;65.46;52816.38;5010638;28;20617;-72
2022/12/29 11:42:49;;;;;;;;;;;;;;;-144.47;65.75;52838.22;5016298;28;19921;-73
2022/12/29 11:45:37;;;;;;;;;;;;;;;-144.47;65.96;52830.28;5013402;28;19916;-71
2022/12/29 11:48:17;;;;;;;;;;;;;;;-144.47;65.50;52804.44;5006108;28;20516;-74
2022/12/29 11:50:48;;;;;;;;;;;;;;;-144.47;65.67;52816.38;5015340;28;20238;-76
2022/12/29 11:53:20;;;;;;;;;;;;;;;-144.47;65.64;52828.28;5011684;28;19916;-73
2022/12/29 11:55:59;;;;;;;;;;;;;;;-144.47;65.57;52830.28;5017283;28;19923;-72
2022/12/29 11:58:28;;;;;;;;;;;;;;;-144.47;65.91;52810.41;5013308;28;20016;-73
2022/12/29 12:00:57;;;;;;;;;;;;;;;-144.47;66.01;52802.47;5014402;28;19925;-72
2022/12/29 12:03:27;;;;;;;;;;;;;;;-144.47;65.90;52814.38;5012323;28;19972;-70
2022/12/29 12:05:57;;;;;;;;;;;;;;;-144.47;65.49;52804.44;5012944;28;19924;-72
2022/12/29 12:08:41;;;;;;;;;;;;;;;-144.47;64.92;52816.38;5011560;28;20032;-73
2022/12/29 12:11:21;;;;;;;;;;;;;;;-144.47;64.30;52816.38;5010752;28;20031;-70
2022/12/29 12:13:47;;;;;;;;;;;;;;;-144.47;64.03;52818.34;5012576;28;19996;-71
2022/12/29 12:16:18;;;;;;;;;;;;;;;-144.47;63.19;52786.56;5005484;28;19959;-69
2022/12/29 12:18:46;;;;;;;;;;;;;;;-144.47;63.25;52816.38;5013886;28;19993;-69
2022/12/29 12:21:14;;;;;;;;;;;;;;;-144.47;62.88;52830.28;5010951;28;19909;-73
2022/12/29 12:24:06;;;;;;;;;;;;;;;-144.47;62.54;52816.38;5009749;28;20530;-73
2022/12/29 12:26:55;;;;;;;;;;;;;;;-144.47;62.82;52814.38;5003334;28;19933;-70
2022/12/29 12:29:24;;;;;;;;;;;;;;;-144.47;62.43;52812.41;5012879;28;19921;-71
2022/12/29 12:31:53;;;;;;;;;;;;;;;-144.47;63.17;52842.19;5016754;28;19920;-74
2022/12/29 12:34:22;;;;;;;;;;;;;;;-144.47;63.40;52816.38;5012384;28;19913;-73
2022/12/29 12:36:53;;;;;;;;;;;;;;;-144.47;63.45;52818.34;5013195;28;19971;-72
2022/12/29 12:39:37;;;;;;;;;;;;;;;-144.47;63.58;52816.38;5000435;28;19992;-74
2022/12/29 12:42:03;;;;;;;;;;;;;;;-144.47;64.04;52810.41;5012803;28;19921;-71
2022/12/29 12:44:32;;;;;;;;;;;;;;;-144.47;64.67;52836.22;5014501;28;19928;-71
2022/12/29 12:47:16;;;;;;;;;;;;;;;-144.47;64.95;52836.22;5012337;28;19916;-72
2022/12/29 12:49:58;;;;;;;;;;;;;;;-144.47;65.34;52824.31;5009810;28;20332;-72
2022/12/29 12:52:32;;;;;;;;;;;;;;;-144.47;65.22;52824.31;5011257;28;19933;-74
2022/12/29 12:54:57;;;;;;;;;;;;;;;-144.47;65.20;52824.31;5017027;28;19960;-74
2022/12/29 12:57:40;;;;;;;;;;;;;;;-144.47;65.04;52848.16;5014191;28;19955;-71